Time;durP1;ratioP1;P1;durP2;ratioP2;P2;SDS_P1;SDS_P2;PMS_P1;PMS_P2;Temp;Humidity;BMP_temperature;BMP_pressure;BME280_temperature;BME280_humidity;BME280_pressure;Samples;Min_cycle;Max_cycle;Signal;HPM_P1;HPM_P2
2022/06/30 00:02:23;;;;;;;10.18;7.03;;;;;;;;;;10441641;28;20056;-75
2022/06/30 00:07:27;;;;;;;13.20;7.03;;;;;;;;;;10421033;28;20037;-78
2022/06/30 00:12:29;;;;;;;12.63;7.43;;;;;;;;;;10419064;28;20037;-76
2022/06/30 00:17:32;;;;;;;11.27;7.00;;;;;;;;;;10440502;28;20120;-76
2022/06/30 00:22:37;;;;;;;13.25;6.97;;;;;;;;;;10418879;28;20314;-76
2022/06/30 00:27:40;;;;;;;11.35;7.50;;;;;;;;;;10415859;28;20124;-76
2022/06/30 00:32:43;;;;;;;13.50;7.85;;;;;;;;;;10444499;28;20033;-76
2022/06/30 00:37:47;;;;;;;13.07;8.00;;;;;;;;;;10449868;28;20032;-78
2022/06/30 00:42:50;;;;;;;11.85;6.65;;;;;;;;;;10417520;28;20505;-76
2022/06/30 00:47:53;;;;;;;11.70;7.30;;;;;;;;;;10425235;28;20037;-76
2022/06/30 00:52:57;;;;;;;13.93;7.28;;;;;;;;;;10419829;28;20700;-76
2022/06/30 00:58:01;;;;;;;11.63;6.88;;;;;;;;;;10415758;28;20104;-75
2022/06/30 01:03:04;;;;;;;12.70;6.90;;;;;;;;;;10433627;28;20705;-76
2022/06/30 01:08:08;;;;;;;10.77;7.20;;;;;;;;;;10406438;28;20083;-75
2022/06/30 01:13:11;;;;;;;12.32;7.63;;;;;;;;;;10428990;28;20035;-74
2022/06/30 01:18:15;;;;;;;12.10;7.15;;;;;;;;;;10425970;28;20040;-74
2022/06/30 01:23:25;;;;;;;12.02;5.65;;;;;;;;;;10423595;28;20562;-75
2022/06/30 01:28:28;;;;;;;11.43;6.40;;;;;;;;;;10441277;28;20029;-78
2022/06/30 01:33:40;;;;;;;13.05;6.50;;;;;;;;;;10444124;28;20728;-77
2022/06/30 01:38:44;;;;;;;16.15;6.95;;;;;;;;;;10438298;28;20037;-76
2022/06/30 01:43:47;;;;;;;12.05;7.03;;;;;;;;;;10427261;28;20056;-76
2022/06/30 01:48:49;;;;;;;11.00;6.43;;;;;;;;;;10424351;28;20462;-76
2022/06/30 01:53:53;;;;;;;11.50;7.27;;;;;;;;;;10437990;28;20056;-76
2022/06/30 01:58:57;;;;;;;15.38;7.32;;;;;;;;;;10413518;28;20724;-76
2022/06/30 02:04:46;;;;;;;14.23;7.32;;;;;;;;;;10432074;28;20044;-76
2022/06/30 02:09:25;;;;;;;14.32;7.35;;;;;;;;;;10434940;28;20044;-75
2022/06/30 02:14:28;;;;;;;11.63;7.68;;;;;;;;;;10416567;28;20067;-76
2022/06/30 02:19:31;;;;;;;12.40;6.60;;;;;;;;;;10436335;28;20109;-76
2022/06/30 02:24:35;;;;;;;12.75;7.18;;;;;;;;;;10435165;28;20585;-74
2022/06/30 02:29:38;;;;;;;11.75;6.80;;;;;;;;;;10434677;28;20176;-78
2022/06/30 02:34:40;;;;;;;13.40;7.10;;;;;;;;;;10413443;28;20049;-75
2022/06/30 02:39:44;;;;;;;9.90;6.80;;;;;;;;;;10431741;28;20040;-76
2022/06/30 02:44:47;;;;;;;13.63;6.60;;;;;;;;;;10418661;28;20048;-75
2022/06/30 02:49:50;;;;;;;14.90;7.60;;;;;;;;;;10426005;28;20102;-76
2022/06/30 02:54:54;;;;;;;12.70;7.57;;;;;;;;;;10418697;28;20150;-76
2022/06/30 02:59:57;;;;;;;15.57;7.95;;;;;;;;;;10413616;28;20469;-75
2022/06/30 03:04:59;;;;;;;14.27;8.70;;;;;;;;;;10403305;28;20085;-77
2022/06/30 03:10:04;;;;;;;15.47;8.37;;;;;;;;;;10439013;28;20029;-76
2022/06/30 03:15:07;;;;;;;14.88;7.63;;;;;;;;;;10413870;28;20037;-76
2022/06/30 03:20:10;;;;;;;13.52;7.53;;;;;;;;;;10418925;28;20091;-74
2022/06/30 03:25:14;;;;;;;11.48;7.55;;;;;;;;;;10425102;28;20059;-76
2022/06/30 03:30:17;;;;;;;13.07;7.13;;;;;;;;;;10414827;28;20160;-76
2022/06/30 03:35:20;;;;;;;10.33;6.77;;;;;;;;;;10414296;28;20064;-77
2022/06/30 03:40:24;;;;;;;10.37;6.10;;;;;;;;;;10436831;28;20032;-77
2022/06/30 03:45:29;;;;;;;10.57;6.22;;;;;;;;;;10421567;28;20071;-76
2022/06/30 03:50:32;;;;;;;9.57;6.47;;;;;;;;;;10422954;28;20045;-76
2022/06/30 03:55:39;;;;;;;10.88;5.75;;;;;;;;;;10419931;28;20290;-76
2022/06/30 04:00:42;;;;;;;9.45;5.30;;;;;;;;;;10420931;28;20123;-75
2022/06/30 04:05:46;;;;;;;;;;;;;;;;;;10411931;28;20612;-72
2022/06/30 04:10:51;;;;;;;8.20;5.33;;;;;;;;;;10409198;28;19920;-71
2022/06/30 04:15:56;;;;;;;9.05;5.32;;;;;;;;;;10401150;28;20321;-73
2022/06/30 04:20:59;;;;;;;7.60;4.55;;;;;;;;;;10420325;28;20036;-73
2022/06/30 04:26:03;;;;;;;9.32;4.90;;;;;;;;;;10416340;28;20033;-72
2022/06/30 04:36:26;;;;;;;9.25;5.05;;;;;;;;;;10406659;28;20436;-72
2022/06/30 04:41:30;;;;;;;14.20;5.50;;;;;;;;;;10409280;28;20133;-72
2022/06/30 04:46:32;;;;;;;7.82;4.95;;;;;;;;;;10425073;28;20029;-72
2022/06/30 04:51:35;;;;;;;10.00;5.50;;;;;;;;;;10405724;28;20037;-74
2022/06/30 04:56:40;;;;;;;10.05;5.43;;;;;;;;;;10407423;28;20532;-73
2022/06/30 05:01:43;;;;;;;11.50;5.68;;;;;;;;;;10428582;28;20041;-73
2022/06/30 05:06:48;;;;;;;10.63;5.40;;;;;;;;;;10434971;28;20398;-73
2022/06/30 05:11:52;;;;;;;8.33;5.13;;;;;;;;;;10437701;28;20056;-73
2022/06/30 05:16:55;;;;;;;8.30;4.55;;;;;;;;;;10431744;28;20311;-73
2022/06/30 05:21:57;;;;;;;8.00;4.53;;;;;;;;;;10428947;28;20064;-72
2022/06/30 05:27:07;;;;;;;8.57;4.95;;;;;;;;;;10432484;28;20577;-73
2022/06/30 05:32:09;;;;;;;9.25;5.20;;;;;;;;;;10428571;28;20092;-73
2022/06/30 05:37:13;;;;;;;12.50;5.32;;;;;;;;;;10427213;28;20385;-73
2022/06/30 05:42:17;;;;;;;9.75;4.93;;;;;;;;;;10409611;28;20045;-72
2022/06/30 05:47:20;;;;;;;9.18;5.40;;;;;;;;;;10404441;28;20061;-72
2022/06/30 05:52:23;;;;;;;8.07;4.85;;;;;;;;;;10409774;28;20037;-73
2022/06/30 05:57:27;;;;;;;10.18;5.05;;;;;;;;;;10408631;28;20069;-73
2022/06/30 06:02:29;;;;;;;7.18;4.20;;;;;;;;;;10414955;28;20094;-72
2022/06/30 06:07:32;;;;;;;12.00;4.78;;;;;;;;;;10422427;28;20033;-73
2022/06/30 06:12:37;;;;;;;8.07;4.65;;;;;;;;;;10405508;28;20098;-74
2022/06/30 06:17:40;;;;;;;10.77;4.80;;;;;;;;;;10408768;28;20517;-73
2022/06/30 06:22:44;;;;;;;9.00;4.95;;;;;;;;;;10427597;28;20041;-73
2022/06/30 06:33:06;;;;;;;8.77;4.85;;;;;;;;;;10405167;28;20041;-74
2022/06/30 06:38:09;;;;;;;8.05;4.40;;;;;;;;;;10430258;28;20038;-74
2022/06/30 06:43:13;;;;;;;12.23;4.97;;;;;;;;;;10416866;28;20553;-72
2022/06/30 06:48:16;;;;;;;8.88;4.43;;;;;;;;;;10420911;28;20048;-73
2022/06/30 06:53:19;;;;;;;8.57;4.15;;;;;;;;;;10405799;28;20095;-72
2022/06/30 06:58:23;;;;;;;7.82;4.28;;;;;;;;;;10423817;28;20044;-71
2022/06/30 07:03:26;;;;;;;9.88;4.60;;;;;;;;;;10408232;28;20073;-72
2022/06/30 07:08:29;;;;;;;9.38;4.15;;;;;;;;;;10421462;28;20060;-72
2022/06/30 07:13:35;;;;;;;6.82;4.47;;;;;;;;;;10424356;28;20068;-71
2022/06/30 07:18:38;;;;;;;8.65;4.30;;;;;;;;;;10424263;28;20537;-71
2022/06/30 07:23:42;;;;;;;9.15;4.05;;;;;;;;;;10409422;28;20048;-73
2022/06/30 07:28:46;;;;;;;5.50;3.72;;;;;;;;;;10428483;28;20052;-72
2022/06/30 07:33:54;;;;;;;5.97;3.97;;;;;;;;;;10422547;28;20767;-72
2022/06/30 07:38:57;;;;;;;7.57;4.28;;;;;;;;;;10412480;28;20073;-73
2022/06/30 07:44:02;;;;;;;7.45;3.95;;;;;;;;;;10421837;28;20074;-72
2022/06/30 07:49:05;;;;;;;6.85;4.00;;;;;;;;;;10421820;28;20029;-72
2022/06/30 07:54:07;;;;;;;;;;;;;;;;;;10403726;28;20053;-72
2022/06/30 07:59:11;;;;;;;4.77;3.13;;;;;;;;;;10407695;28;19964;-72
2022/06/30 08:04:17;;;;;;;5.47;3.58;;;;;;;;;;10419452;28;20052;-72
2022/06/30 08:09:20;;;;;;;7.40;3.65;;;;;;;;;;10422445;28;20071;-73
2022/06/30 08:14:25;;;;;;;16.75;4.50;;;;;;;;;;10410345;28;20041;-72
2022/06/30 08:19:27;;;;;;;6.53;3.83;;;;;;;;;;10411005;28;20524;-72
2022/06/30 08:24:30;;;;;;;7.25;3.65;;;;;;;;;;10427193;28;20037;-73
2022/06/30 08:29:34;;;;;;;7.65;3.55;;;;;;;;;;10426642;28;20037;-72
2022/06/30 08:34:37;;;;;;;12.25;4.00;;;;;;;;;;10426979;28;20056;-76
2022/06/30 08:45:16;;;;;;;;;;;;;;;;;;10410115;28;20045;-77
2022/06/30 08:50:19;;;;;;;;;;;;;;;;;;10433534;28;19971;-78
2022/06/30 08:55:24;;;;;;;5.18;3.15;;;;;;;;;;10433107;28;19929;-76
2022/06/30 09:00:27;;;;;;;9.27;3.90;;;;;;;;;;10433711;28;20048;-79
2022/06/30 09:05:31;;;;;;;10.52;3.95;;;;;;;;;;10416196;28;20094;-78
2022/06/30 09:10:36;;;;;;;4.85;3.45;;;;;;;;;;10438999;28;20065;-78
2022/06/30 09:15:39;;;;;;;5.05;3.53;;;;;;;;;;10424313;28;20047;-78
2022/06/30 09:20:42;;;;;;;7.88;3.50;;;;;;;;;;10435715;28;20046;-78
2022/06/30 09:25:49;;;;;;;3.72;3.38;;;;;;;;;;10412826;28;20041;-79
2022/06/30 09:30:57;;;;;;;6.45;3.92;;;;;;;;;;10415485;28;20041;-76
2022/06/30 09:36:18;;;;;;;9.18;3.97;;;;;;;;;;10417711;28;20065;-77
2022/06/30 09:41:28;;;;;;;5.28;3.42;;;;;;;;;;10412851;28;20124;-78
2022/06/30 09:46:31;;;;;;;4.55;3.78;;;;;;;;;;10423422;28;20079;-77
2022/06/30 09:51:41;;;;;;;5.82;3.38;;;;;;;;;;10441560;28;20049;-78
2022/06/30 09:56:59;;;;;;;6.28;3.42;;;;;;;;;;10433263;28;20041;-77
2022/06/30 10:02:06;;;;;;;6.18;3.80;;;;;;;;;;10410951;28;20068;-78
2022/06/30 10:07:08;;;;;;;4.70;3.45;;;;;;;;;;10408273;28;20045;-78
2022/06/30 10:12:17;;;;;;;4.47;3.63;;;;;;;;;;10419501;28;20041;-78
2022/06/30 10:17:21;;;;;;;6.15;3.97;;;;;;;;;;10411059;28;20702;-77
2022/06/30 10:22:25;;;;;;;5.90;3.67;;;;;;;;;;10434673;28;20037;-78
2022/06/30 10:27:29;;;;;;;4.90;3.88;;;;;;;;;;10407015;28;20060;-78
2022/06/30 10:32:40;;;;;;;7.43;3.95;;;;;;;;;;10419902;28;20044;-79
2022/06/30 10:37:46;;;;;;;6.28;3.88;;;;;;;;;;10428875;28;20056;-78
2022/06/30 10:42:50;;;;;;;4.78;3.72;;;;;;;;;;10418469;28;20033;-77
2022/06/30 10:47:56;;;;;;;6.78;4.05;;;;;;;;;;10427672;28;20051;-77
2022/06/30 10:52:59;;;;;;;5.25;3.40;;;;;;;;;;10409470;28;20034;-77
2022/06/30 10:58:09;;;;;;;7.57;3.78;;;;;;;;;;10430139;28;20437;-77
2022/06/30 11:03:27;;;;;;;6.80;3.55;;;;;;;;;;10431439;28;20095;-77
2022/06/30 11:08:48;;;;;;;5.75;3.50;;;;;;;;;;10429834;28;20183;-77
2022/06/30 11:13:53;;;;;;;5.03;3.50;;;;;;;;;;10425229;28;20041;-78
2022/06/30 11:18:55;;;;;;;5.28;4.15;;;;;;;;;;10415331;28;20057;-77
2022/06/30 11:24:00;;;;;;;8.82;3.60;;;;;;;;;;10412633;28;20046;-77
2022/06/30 11:29:05;;;;;;;7.55;4.20;;;;;;;;;;10431265;28;20041;-76
2022/06/30 11:34:09;;;;;;;6.60;3.70;;;;;;;;;;10421286;28;20037;-78
2022/06/30 11:39:15;;;;;;;5.68;3.72;;;;;;;;;;10428889;28;20038;-78
2022/06/30 11:44:21;;;;;;;6.13;3.38;;;;;;;;;;10415452;28;20128;-77
2022/06/30 11:49:27;;;;;;;4.68;3.58;;;;;;;;;;10431498;28;20038;-77
2022/06/30 11:54:30;;;;;;;6.75;3.90;;;;;;;;;;10434856;28;20519;-77
2022/06/30 11:59:36;;;;;;;4.70;3.05;;;;;;;;;;10431917;28;20041;-76
2022/06/30 12:04:41;;;;;;;5.13;3.40;;;;;;;;;;10414454;28;20045;-77
2022/06/30 12:09:45;;;;;;;6.70;3.60;;;;;;;;;;10412027;28;20146;-77
2022/06/30 12:14:49;;;;;;;10.98;3.70;;;;;;;;;;10435769;28;20090;-76
2022/06/30 12:19:52;;;;;;;8.45;3.47;;;;;;;;;;10434603;28;20045;-78
2022/06/30 12:24:56;;;;;;;6.32;3.80;;;;;;;;;;10423403;28;20041;-77
2022/06/30 12:30:02;;;;;;;8.82;3.90;;;;;;;;;;10413536;28;20045;-76
2022/06/30 12:35:07;;;;;;;7.20;3.55;;;;;;;;;;10421167;28;20049;-77
2022/06/30 12:40:12;;;;;;;8.00;3.65;;;;;;;;;;10421786;28;20154;-77
2022/06/30 12:45:33;;;;;;;7.00;3.40;;;;;;;;;;10431511;28;20138;-77
2022/06/30 12:50:38;;;;;;;3.95;3.17;;;;;;;;;;10434941;28;20041;-77
2022/06/30 12:55:55;;;;;;;10.68;4.10;;;;;;;;;;10429859;28;20045;-77
2022/06/30 13:00:59;;;;;;;7.63;3.03;;;;;;;;;;10411361;28;20068;-77
2022/06/30 13:06:03;;;;;;;8.88;3.67;;;;;;;;;;10435878;28;20032;-77
2022/06/30 13:11:07;;;;;;;4.78;3.40;;;;;;;;;;10413167;28;20164;-78
2022/06/30 13:16:10;;;;;;;7.38;3.47;;;;;;;;;;10411268;28;20052;-77
2022/06/30 13:21:15;;;;;;;4.20;3.28;;;;;;;;;;10429373;28;20621;-78
2022/06/30 13:26:18;;;;;;;8.25;3.30;;;;;;;;;;10411501;28;20061;-77
2022/06/30 13:31:21;;;;;;;80.85;8.93;;;;;;;;;;10415099;28;20041;-74
2022/06/30 13:36:27;;;;;;;8.95;3.45;;;;;;;;;;10429081;28;20068;-76
2022/06/30 13:41:30;;;;;;;10.80;3.47;;;;;;;;;;10410665;28;20458;-75
2022/06/30 13:46:38;;;;;;;5.38;3.40;;;;;;;;;;10414917;28;20123;-77
2022/06/30 13:51:42;;;;;;;13.48;3.60;;;;;;;;;;10435895;28;20481;-77
2022/06/30 13:56:45;;;;;;;9.80;3.53;;;;;;;;;;10430315;28;20055;-77
2022/06/30 14:01:47;;;;;;;5.35;3.60;;;;;;;;;;10414188;28;20069;-78
2022/06/30 14:06:52;;;;;;;6.30;3.58;;;;;;;;;;10414437;28;20095;-77
2022/06/30 14:11:54;;;;;;;8.65;4.07;;;;;;;;;;10411456;28;20051;-78
2022/06/30 14:16:57;;;;;;;11.18;4.10;;;;;;;;;;10427691;28;20497;-77
2022/06/30 14:22:01;;;;;;;8.73;3.83;;;;;;;;;;10406146;28;20103;-77
2022/06/30 14:27:04;;;;;;;6.00;3.72;;;;;;;;;;10428953;28;20125;-76
2022/06/30 14:32:07;;;;;;;6.97;3.55;;;;;;;;;;10415607;28;20029;-76
2022/06/30 14:37:14;;;;;;;5.35;3.58;;;;;;;;;;10430336;28;20391;-77
2022/06/30 14:47:43;;;;;;;7.80;3.55;;;;;;;;;;10428422;28;20049;-77
2022/06/30 14:52:47;;;;;;;6.70;3.50;;;;;;;;;;10411881;28;20041;-78
2022/06/30 14:57:51;;;;;;;7.78;4.03;;;;;;;;;;10426845;28;20048;-76
2022/06/30 15:02:54;;;;;;;6.97;3.50;;;;;;;;;;10429791;28;20481;-77
2022/06/30 15:07:59;;;;;;;8.77;3.42;;;;;;;;;;10413702;28;20041;-77
2022/06/30 15:13:01;;;;;;;9.23;3.83;;;;;;;;;;10425558;28;20025;-78
2022/06/30 15:18:04;;;;;;;7.30;3.58;;;;;;;;;;10434377;28;20643;-78
2022/06/30 15:28:29;;;;;;;7.97;3.72;;;;;;;;;;10418981;28;20049;-77
2022/06/30 15:33:31;;;;;;;8.48;3.70;;;;;;;;;;10426654;28;20036;-77
2022/06/30 15:38:37;;;;;;;8.25;3.47;;;;;;;;;;10429017;28;20474;-77
2022/06/30 15:43:42;;;;;;;5.22;3.25;;;;;;;;;;10412575;28;20198;-77
2022/06/30 15:48:45;;;;;;;8.40;3.72;;;;;;;;;;10413234;28;20060;-78
2022/06/30 15:53:49;;;;;;;5.65;3.28;;;;;;;;;;10420866;28;20033;-78
2022/06/30 15:58:52;;;;;;;11.07;3.60;;;;;;;;;;10424338;28;20170;-76
2022/06/30 16:03:56;;;;;;;11.68;3.20;;;;;;;;;;10407747;28;20520;-78
2022/06/30 16:09:00;;;;;;;7.70;3.15;;;;;;;;;;10404979;28;20582;-76
2022/06/30 16:14:04;;;;;;;6.20;2.90;;;;;;;;;;10422040;28;20413;-75
2022/06/30 16:19:07;;;;;;;7.22;3.25;;;;;;;;;;10404597;28;20049;-76
2022/06/30 16:24:12;;;;;;;8.80;4.25;;;;;;;;;;10423455;28;20591;-77
2022/06/30 16:29:14;;;;;;;9.77;3.78;;;;;;;;;;10411354;28;20057;-76
2022/06/30 16:34:17;;;;;;;6.90;3.70;;;;;;;;;;10406469;28;20098;-76
2022/06/30 16:39:21;;;;;;;11.52;4.57;;;;;;;;;;10437230;28;20039;-79
2022/06/30 16:44:24;;;;;;;7.82;2.95;;;;;;;;;;10433299;28;20025;-76
2022/06/30 16:49:27;;;;;;;11.48;5.47;;;;;;;;;;10416389;28;20076;-75
2022/06/30 16:54:31;;;;;;;7.40;3.53;;;;;;;;;;10418484;28;20040;-75
2022/06/30 16:59:34;;;;;;;8.45;4.70;;;;;;;;;;10432952;28;20036;-76
2022/06/30 17:04:38;;;;;;;8.68;4.85;;;;;;;;;;10434354;28;20033;-78
2022/06/30 17:09:41;;;;;;;;;;;;;;;;;;10424344;28;20662;-80
2022/06/30 17:14:45;;;;;;;8.73;4.03;;;;;;;;;;10443337;28;19928;-78
2022/06/30 17:19:49;;;;;;;15.32;7.35;;;;;;;;;;10432834;28;20152;-76
2022/06/30 17:24:52;;;;;;;12.38;4.07;;;;;;;;;;10432236;28;20489;-76
2022/06/30 17:30:01;;;;;;;7.43;4.10;;;;;;;;;;10433573;28;20068;-76
2022/06/30 17:35:06;;;;;;;11.55;4.60;;;;;;;;;;10431167;28;20067;-76
2022/06/30 17:40:10;;;;;;;12.30;4.97;;;;;;;;;;10433748;28;20077;-74
2022/06/30 17:45:14;;;;;;;7.20;3.90;;;;;;;;;;10429479;28;20528;-75
2022/06/30 17:50:18;;;;;;;11.65;3.97;;;;;;;;;;10413252;28;20190;-75
2022/06/30 17:55:22;;;;;;;7.90;3.95;;;;;;;;;;10412086;28;20143;-76
2022/06/30 18:00:26;;;;;;;7.10;3.85;;;;;;;;;;10411542;28;20041;-76
2022/06/30 18:05:29;;;;;;;12.57;5.10;;;;;;;;;;10411069;28;20046;-76
2022/06/30 18:15:57;;;;;;;10.75;4.25;;;;;;;;;;10377266;28;19924;-78
2022/06/30 18:20:59;;;;;;;10.07;4.78;;;;;;;;;;10410112;28;20045;-78
2022/06/30 18:26:02;;;;;;;9.23;4.35;;;;;;;;;;10425844;28;20048;-76
2022/06/30 18:31:07;;;;;;;9.07;4.60;;;;;;;;;;10411287;28;20087;-76
2022/06/30 18:36:10;;;;;;;8.80;5.13;;;;;;;;;;10413263;28;20148;-75
2022/06/30 18:41:25;;;;;;;10.10;4.88;;;;;;;;;;10428476;28;20046;-76
2022/06/30 18:46:29;;;;;;;7.53;4.97;;;;;;;;;;10410958;28;20107;-77
2022/06/30 18:51:33;;;;;;;9.55;4.05;;;;;;;;;;10427904;28;20051;-75
2022/06/30 18:56:39;;;;;;;10.20;4.57;;;;;;;;;;10410069;28;20496;-76
2022/06/30 19:01:43;;;;;;;9.85;3.65;;;;;;;;;;10425504;28;20044;-76
2022/06/30 19:06:47;;;;;;;8.85;4.72;;;;;;;;;;10426552;28;20137;-78
2022/06/30 19:11:50;;;;;;;8.20;3.75;;;;;;;;;;10404512;28;20069;-75
2022/06/30 19:16:54;;;;;;;11.57;4.32;;;;;;;;;;10408725;28;20037;-76
2022/06/30 19:21:57;;;;;;;7.68;4.32;;;;;;;;;;10403003;28;20037;-75
2022/06/30 19:27:19;;;;;;;7.75;3.47;;;;;;;;;;10407116;28;20856;-76
2022/06/30 19:32:26;;;;;;;8.10;3.80;;;;;;;;;;10423957;28;20042;-75
2022/06/30 19:37:29;;;;;;;8.45;3.75;;;;;;;;;;10404996;28;20041;-75
2022/06/30 19:42:33;;;;;;;6.00;3.40;;;;;;;;;;10419178;28;20044;-75
2022/06/30 19:47:38;;;;;;;8.45;3.50;;;;;;;;;;10422936;28;20151;-75
2022/06/30 19:52:41;;;;;;;8.00;3.80;;;;;;;;;;10402339;28;20045;-74
2022/06/30 19:57:44;;;;;;;6.57;3.75;;;;;;;;;;10418833;28;20037;-75
2022/06/30 20:13:31;;;;;;;5.30;3.00;;;;;;;;;;10410349;28;20040;-76
2022/06/30 20:18:35;;;;;;;6.38;3.17;;;;;;;;;;10424716;28;20937;-75
2022/06/30 20:23:38;;;;;;;7.00;2.92;;;;;;;;;;10408476;28;20072;-77
2022/06/30 20:28:41;;;;;;;7.00;3.15;;;;;;;;;;10430324;28;20053;-76
2022/06/30 20:33:45;;;;;;;6.30;2.35;;;;;;;;;;10427335;28;20421;-75
2022/06/30 20:38:48;;;;;;;4.15;1.60;;;;;;;;;;10413030;28;20068;-77
2022/06/30 20:43:51;;;;;;;;;;;;;;;;;;10427639;28;20039;-77
2022/06/30 20:54:19;;;;;;;7.15;2.70;;;;;;;;;;10430338;28;20619;-75
2022/06/30 20:59:22;;;;;;;7.68;2.50;;;;;;;;;;10431201;28;20223;-75
2022/06/30 21:04:26;;;;;;;6.20;2.90;;;;;;;;;;10410578;28;20430;-74
2022/06/30 21:09:29;;;;;;;5.55;3.00;;;;;;;;;;10409892;28;20099;-76
2022/06/30 21:14:35;;;;;;;6.43;2.78;;;;;;;;;;10412778;28;20037;-75
2022/06/30 21:19:39;;;;;;;7.22;2.90;;;;;;;;;;10414022;28;20037;-76
2022/06/30 21:24:42;;;;;;;4.13;2.70;;;;;;;;;;10422461;28;20029;-75
2022/06/30 21:29:45;;;;;;;9.45;3.35;;;;;;;;;;10414587;28;20037;-78
2022/06/30 21:34:50;;;;;;;6.55;2.83;;;;;;;;;;10412769;28;20038;-77
2022/06/30 21:39:53;;;;;;;6.80;2.90;;;;;;;;;;10429445;28;20094;-77
2022/06/30 21:44:56;;;;;;;6.88;3.45;;;;;;;;;;10428220;28;20631;-74
2022/06/30 21:50:00;;;;;;;5.93;2.90;;;;;;;;;;10416717;28;20045;-77
2022/06/30 21:55:03;;;;;;;6.15;3.20;;;;;;;;;;10415352;28;20033;-77
2022/06/30 22:00:08;;;;;;;8.55;3.55;;;;;;;;;;10434780;28;20095;-76
2022/06/30 22:05:12;;;;;;;6.32;3.20;;;;;;;;;;10425136;28;20040;-75
2022/06/30 22:10:15;;;;;;;6.13;3.38;;;;;;;;;;10411918;28;20406;-75
2022/06/30 22:15:18;;;;;;;7.70;3.42;;;;;;;;;;10430659;28;20041;-75
2022/06/30 22:20:22;;;;;;;5.72;3.10;;;;;;;;;;10416667;28;20397;-76
2022/06/30 22:25:25;;;;;;;8.93;2.92;;;;;;;;;;10411653;28;20033;-75
2022/06/30 22:30:29;;;;;;;6.78;3.22;;;;;;;;;;10411794;28;20068;-78
2022/06/30 22:35:33;;;;;;;8.38;3.17;;;;;;;;;;10429856;28;20057;-76
2022/06/30 22:40:37;;;;;;;5.70;2.75;;;;;;;;;;10413753;28;20046;-76
2022/06/30 22:45:39;;;;;;;5.03;2.97;;;;;;;;;;10414058;28;20037;-77
2022/06/30 22:50:44;;;;;;;6.65;2.80;;;;;;;;;;10436021;28;20051;-76
2022/06/30 22:55:47;;;;;;;5.20;2.90;;;;;;;;;;10410694;28;20701;-77
2022/06/30 23:00:50;;;;;;;5.75;2.65;;;;;;;;;;10409840;28;20425;-76
2022/06/30 23:05:55;;;;;;;7.45;3.10;;;;;;;;;;10426658;28;20594;-74
2022/06/30 23:10:58;;;;;;;5.35;2.78;;;;;;;;;;10408160;28;20076;-74
2022/06/30 23:16:01;;;;;;;;;;;;;;;;;;10403963;28;20371;-74
2022/06/30 23:21:05;;;;;;;4.03;2.40;;;;;;;;;;10425151;28;20563;-77
2022/06/30 23:26:08;;;;;;;5.90;2.05;;;;;;;;;;10427579;28;20028;-78
2022/06/30 23:31:11;;;;;;;6.63;2.10;;;;;;;;;;10409669;28;20041;-75
2022/06/30 23:36:15;;;;;;;3.08;1.90;;;;;;;;;;10424840;28;20393;-75
2022/06/30 23:41:17;;;;;;;5.90;2.42;;;;;;;;;;10407360;28;20095;-75
2022/06/30 23:46:20;;;;;;;5.40;2.53;;;;;;;;;;10412794;28;20397;-75
2022/06/30 23:51:28;;;;;;;5.88;2.00;;;;;;;;;;10423416;28;20029;-76
2022/06/30 23:56:31;;;;;;;5.38;2.83;;;;;;;;;;10411928;28;20029;-75
